METAR Data
IDs: Format: Raw Decoded Include TAF

Data at: 0425 UTC 26 Sep 2018

KCKV 260352Z AUTO 19008KT 10SM CLR 23/21 A3001 RMK AO2 LTG DSNT N SLP157 T02330211
KCKV 260252Z AUTO 18004KT 10SM BKN100 23/21 A3002 RMK AO2 SLP159 T02330211 51013
KCKV 260152Z AUTO 17004KT 10SM SCT065 BKN080 23/21 A3001 RMK AO2 SLP158 T02330211
KCKV 260052Z AUTO 16003KT 10SM CLR 23/21 A2999 RMK AO2 SLP149 T02330211
KCKV 252352Z AUTO 17004KT 10SM CLR 24/21 A2998 RMK AO2 SLP147 60027 T02390211 10267 20233 55002
KCKV 252252Z AUTO VRB05KT 10SM CLR 25/21 A2997 RMK AO2 SLP143 T02500211
KCKV 252152Z AUTO 18009KT 10SM CLR 25/22 A2998 RMK AO2 SLP145 T02500217
KCKV 252052Z AUTO 19007KT 10SM FEW042 SCT070 24/22 A2999 RMK AO2 RAE1954B15E32 SLP149 P0001 60027 T02440217 58012
KCKV 251952Z AUTO 17008G14KT 7SM -RA FEW008 BKN034 BKN055 24/22 A3000 RMK AO2 TSB26E41 SLP152 P0025 T02390217
KCKV 251946Z AUTO 18007KT 3SM -RA BR SCT008 BKN036 OVC060 24/22 A3000 RMK AO2 TSB26E41 P0025
KCKV 251941Z AUTO 18009KT 1SM -RA BR SCT008 BKN018 OVC033 23/22 A3001 RMK AO2 TSB26E41 P0025 T02330217
KCKV 251938Z AUTO 17006KT 3/4SM TSRA BR SCT008 BKN016 OVC028 23/22 A3001 RMK AO2 LTG DSNT SE TSB26 P0024 T02330222
KCKV 251926Z AUTO 22004KT 1 1/4SM +TSRA BR SCT008 BKN016 OVC038 24/22 A3001 RMK AO2 LTG DSNT SE TSB26 P0013 T02390222
KCKV 251910Z AUTO 22006KT 1 3/4SM VCTS RA BR SCT020 BKN028 OVC060 24/22 A3002 RMK AO2 LTG DSNT SE P0006 T02390217
KCKV 251904Z AUTO 21007KT 2 1/2SM RA FEW018 BKN024 OVC060 24/22 A3002 RMK AO2 LTG DSNT S AND SW P0003 T02440217
KCKV 251852Z AUTO 21007KT 10SM -RA FEW025 BKN031 OVC060 24/22 A3002 RMK AO2 LTG DSNT S AND SW RAB06E31B51 SLP159 P0001 T02440217
KCKV 251827Z AUTO 19007KT 8SM -RA FEW024 BKN042 OVC080 25/22 A3002 RMK AO2 LTG DSNT SW RAB06 P0001 T02500217
KCKV 251752Z AUTO 19015G18KT 10SM BKN025 BKN032 27/21 A3002 RMK AO2 SLP160 T02670211 10278 20228 58009
KCKV 251652Z AUTO 17009KT 10SM BKN020 OVC032 26/21 A3003 RMK AO2 SLP162 T02610211
KCKV 251630Z AUTO 19012G18KT 10SM BKN018 OVC034 26/21 A3004 RMK AO2 T02610211
KCKV 251623Z AUTO 18009G17KT 10SM SCT017 SCT024 OVC034 27/22 A3004 RMK AO2 T02670217
KCKV 251552Z AUTO 19011KT 10SM BKN017 OVC033 26/21 A3004 RMK AO2 SLP168 T02560211
KCKV 251539Z AUTO 19012KT 10SM BKN017 OVC033 26/21 A3004 RMK AO2 T02560211
KCKV 251527Z AUTO 18012KT 10SM SCT015 OVC031 25/21 A3004 RMK AO2 T02500211
KCKV 251452Z AUTO 19013G18KT 10SM BKN015 OVC027 24/21 A3005 RMK AO2 SLP169 T02440206 51005
KCKV 251432Z AUTO 19013G16KT 10SM BKN015 OVC022 24/21 A3005 RMK AO2 T02440206
KCKV 251352Z AUTO 18007KT 10SM OVC013 23/21 A3004 RMK AO2 SLP168 T02330206
KCKV 251301Z AUTO 17004KT 10SM OVC014 23/21 A3004 RMK AO2 T02280206
KCKV 251252Z AUTO 17004KT 10SM OVC015 23/21 A3004 RMK AO2 SLP166 T02280206
KCKV 251152Z AUTO 16005KT 10SM OVC015 23/21 A3003 RMK AO2 SLP164 70104 T02280206 10228 20222 53005
KCKV 251052Z AUTO 16005KT 10SM OVC017 23/20 A3003 RMK AO2 SLP162 T02280200
KCKV 251013Z AUTO 15004KT 10SM BKN017 OVC065 22/20 A3001 RMK AO2 T02220200
KCKV 250952Z AUTO 17004KT 10SM FEW017 BKN065 22/20 A3001 RMK AO2 SLP158 T02220200
KCKV 250852Z AUTO 18005KT 10SM SCT100 23/20 A3002 RMK AO2 SLP159 T02280200 51002
KCKV 250752Z AUTO 18007KT 10SM SCT014 23/21 A3001 RMK AO2 SLP157 T02280206
KCKV 250652Z AUTO 17007KT 10SM BKN010 OVC120 23/21 A3002 RMK AO2 CIG 006V014 SLP160 T02280206
KCKV 250634Z AUTO 17007KT 10SM SCT007 BKN011 OVC110 23/21 A3002 RMK AO2 T02280206
KCKV 250614Z AUTO 16007KT 10SM BKN009 OVC100 23/21 A3001 RMK AO2 CIG 006V010 T02280206
KCKV 250552Z AUTO 16006KT 10SM FEW008 OVC100 23/21 A3001 RMK AO2 SLP157 T02280206 10233 20228 402560211 50001
KCKV 250535Z AUTO 15006KT 10SM FEW008 OVC110 23/21 A3001 RMK AO2 T02280206
KCKV 250452Z AUTO 15006KT 10SM OVC100 23/21 A3002 RMK AO2 SLP159 T02280206
KCKV 250352Z AUTO 16004KT 10SM SCT006 SCT120 23/21 A3002 RMK AO2 SLP160 T02280206
KCKV 250259Z AUTO 16004KT 10SM SCT008 OVC100 23/21 A3001 RMK AO2 T02280211
KCKV 250252Z AUTO 15006KT 10SM BKN008 OVC110 23/21 A3001 RMK AO2 CIG 006V010 SLP157 T02280211 53010
KCKV 250219Z AUTO 14006KT 10SM BKN008 OVC085 23/21 A3001 RMK AO2 T02280211
KCKV 250152Z AUTO 14008KT 10SM FEW009 OVC085 23/21 A3000 RMK AO2 SLP155 T02280211
KCKV 250118Z AUTO 15006KT 10SM FEW007 SCT090 OVC110 23/21 A3000 RMK AO2 T02280206
KCKV 250052Z AUTO 13006KT 10SM OVC100 23/21 A2998 RMK AO2 SLP149 T02280206
KCKV 242352Z AUTO 17003KT 10SM BKN110 23/21 A2998 RMK AO2 SLP146 60005 T02330206 10256 20228 53003
KCKV 242252Z AUTO 18008G16KT 10SM SCT012 SCT100 25/22 A2997 RMK AO2 SLP143 T02500217
KCKV 242246Z AUTO 18010G16KT 10SM SCT010 SCT015 BKN090 25/22 A2997 RMK AO2
KCKV 242242Z AUTO 17007KT 10SM BKN013 BKN090 25/22 A2997 RMK AO2 T02500222
KCKV 242152Z AUTO 20005KT 10SM FEW011 BKN100 25/22 A2997 RMK AO2 SLP144 T02500222
KCKV 242149Z AUTO 20004KT 10SM SCT011 BKN100 25/22 A2997 RMK AO2
KCKV 242126Z AUTO 20004KT 10SM BKN010 BKN014 OVC100 24/22 A2998 RMK AO2 CIG 008V013 T02440217
KCKV 242115Z AUTO 19004KT 10SM BKN009 BKN100 24/22 A2998 RMK AO2 CIG 007V014 T02440217
KCKV 242100Z AUTO 17004KT 10SM FEW008 SCT011 BKN100 24/22 A2998 RMK AO2 T02440217
KCKV 242052Z AUTO 17005KT 10SM FEW010 SCT019 BKN095 24/22 A2998 RMK AO2 RAB22E33 SLP147 P0000 60005 T02440217 56004
KCKV 242047Z AUTO 16005KT 10SM FEW010 SCT018 BKN090 24/22 A2998 RMK AO2 RAB22E33 P0000
KCKV 242036Z AUTO 16004KT 10SM FEW009 BKN016 OVC100 24/22 A2998 RMK AO2 RAB22E33 P0000 T02390217
KCKV 242018Z AUTO 18005KT 10SM FEW008 BKN014 OVC020 24/22 A2999 RMK AO2 T02390217
KCKV 242009Z AUTO 20004KT 10SM SCT014 BKN020 OVC027 24/21 A2998 RMK AO2 T02390211
KCKV 241952Z AUTO 21004KT 10SM FEW007 BKN013 OVC025 24/22 A2999 RMK AO2 SLP151 T02390217
KCKV 241859Z AUTO 17003KT 8SM BKN007 OVC013 23/21 A3001 RMK AO2 T02280211
KCKV 241852Z AUTO 19003KT 8SM SCT007 OVC013 23/21 A3001 RMK AO2 RAE49 SLP158 P0005 T02280211
KCKV 241817Z AUTO 18003KT 5SM -RA BR BKN009 BKN055 OVC080 23/21 A3002 RMK AO2 P0002 T02280211
KCKV 241810Z AUTO 17003KT 6SM -RA BR SCT009 BKN055 OVC080 23/21 A3002 RMK AO2 P0001 T02280211
KCKV 241752Z AUTO 18004KT 6SM -RA BR BKN006 OVC065 23/21 A3003 RMK AO2 RAE19B28 SLP163 P0003 60099 T02280206 10228 20217 58007
KCKV 241737Z AUTO 00000KT 5SM -RA BR BKN006 BKN090 23/21 A3003 RMK AO2 RAE19B28 P0002 T02280211
KCKV 241719Z AUTO 16005KT 10SM SCT007 BKN100 OVC110 23/21 A3003 RMK AO2 RAE19 P0001 T02280206
KCKV 241652Z AUTO 15003KT 3SM -RA BR FEW021 BKN090 OVC110 22/21 A3004 RMK AO2 SLP167 P0019 T02220206
KCKV 241650Z AUTO 14003KT 3SM RA BR SCT025 BKN090 OVC110 22/21 A3004 RMK AO2 P0019
KCKV 241645Z AUTO 18004KT 1 3/4SM RA BR SCT027 BKN049 OVC110 22/20 A3004 RMK AO2 P0018 T02220200